Terminal Aerodrome Forecast
Issued by NWS Brownsville, TX

Home | Current Version | Previous Version | Text Only | Print | Product List | Glossary On
Versions: 1 2 3 4 5 6 7 8 9 10 11 12 13 14 15 16 17 18 19 20 21 22 23 24 25
000
FTUS44 KBRO 020500 RRA
TAFMFE
TAF
KMFE 020549Z 0206/0306 12007KT P6SM FEW020
     FM021500 13012KT P6SM VCSH SCT025 BKN100
     FM021800 14015KT P6SM VCTS BKN050CB PROB30 0218/0224 VRB15G30KT
      4SM +TSRA BKN030CB OVC050
     FM030300 11009KT P6SM VCSH SCT025 BKN150 PROB30 0303/0306
      VRB15G30KT 4SM +TSRA BKN030CB OVC050=

USA.gov is the U.S. government's official web portal to all federal, state and local government web resources and services.